Time;durP1;ratioP1;P1;durP2;ratioP2;P2;SDS_P1;SDS_P2;PMS_P1;PMS_P2;Temp;Humidity;BMP_temperature;BMP_pressure;BME280_temperature;BME280_humidity;BME280_pressure;Samples;Min_cycle;Max_cycle;Signal;HPM_P1;HPM_P2
2023/12/20 00:02:06;;;;;;;2.30;1.70;;;;;;;6.10;100.00;102148.24;104314;1258;59677;-58
2023/12/20 00:04:33;;;;;;;4.60;2.60;;;;;;;6.08;100.00;102148.94;104842;1264;59882;-56
2023/12/20 00:07:01;;;;;;;2.90;1.60;;;;;;;6.08;100.00;102144.48;104032;1258;73081;-56
2023/12/20 00:09:29;;;;;;;2.00;1.40;;;;;;;6.07;100.00;102128.77;104727;1260;65982;-57
2023/12/20 00:11:57;;;;;;;3.00;1.60;;;;;;;6.07;100.00;102120.75;104393;1260;71403;-57
2023/12/20 00:14:24;;;;;;;3.00;1.50;;;;;;;6.07;100.00;102114.88;104330;1260;59974;-58
2023/12/20 00:16:52;;;;;;;2.70;1.90;;;;;;;6.08;100.00;102110.61;104230;1260;60662;-58
2023/12/20 00:19:19;;;;;;;2.30;1.40;;;;;;;6.10;100.00;102112.77;104593;1262;73750;-58
2023/12/20 00:21:47;;;;;;;3.00;1.50;;;;;;;6.12;100.00;102103.69;104425;1260;67999;-57
2023/12/20 00:24:14;;;;;;;2.40;1.40;;;;;;;6.15;100.00;102101.20;104278;1261;71474;-55
2023/12/20 00:26:42;;;;;;;2.40;1.40;;;;;;;6.19;100.00;102114.27;104256;1260;59769;-57
2023/12/20 00:29:09;;;;;;;3.00;1.90;;;;;;;6.23;100.00;102108.56;104417;1264;59651;-58
2023/12/20 00:31:37;;;;;;;3.40;1.10;;;;;;;6.28;100.00;102103.27;104224;1264;75263;-58
2023/12/20 00:34:04;;;;;;;2.10;1.30;;;;;;;6.31;100.00;102106.84;108630;1259;67039;-60
2023/12/20 00:36:32;;;;;;;4.40;1.70;;;;;;;6.34;100.00;102111.50;108543;1259;74859;-58
2023/12/20 00:38:59;;;;;;;2.60;1.30;;;;;;;6.37;100.00;102111.35;108571;1259;59448;-59
2023/12/20 00:41:26;;;;;;;2.70;1.30;;;;;;;6.39;100.00;102107.41;108712;1263;60475;-58
2023/12/20 00:43:54;;;;;;;3.10;2.30;;;;;;;6.39;100.00;102107.07;108517;1259;73720;-58
2023/12/20 00:46:21;;;;;;;3.60;1.30;;;;;;;6.41;100.00;102098.70;108587;1259;66709;-58
2023/12/20 00:48:48;;;;;;;2.50;1.30;;;;;;;6.41;100.00;102096.02;108665;1259;71656;-58
2023/12/20 00:51:15;;;;;;;2.80;1.50;;;;;;;6.41;100.00;102090.14;108573;1260;59250;-58
2023/12/20 00:53:43;;;;;;;2.00;1.30;;;;;;;6.41;100.00;102086.39;108764;1260;59159;-58
2023/12/20 00:56:10;;;;;;;3.50;1.70;;;;;;;6.41;100.00;102082.64;108377;1260;71879;-59
2023/12/20 00:58:37;;;;;;;2.70;1.40;;;;;;;6.41;100.00;102077.30;108520;1260;67894;-58
2023/12/20 01:01:05;;;;;;;3.10;1.80;;;;;;;6.41;100.00;102075.86;107668;1260;70721;-56
2023/12/20 01:03:32;;;;;;;2.10;1.50;;;;;;;6.41;100.00;102076.76;104370;1265;59596;-57
2023/12/20 01:05:59;;;;;;;3.90;1.70;;;;;;;6.40;100.00;102069.45;108468;1259;58928;-58
2023/12/20 01:08:27;;;;;;;3.60;1.90;;;;;;;6.40;100.00;102068.73;108638;1260;73084;-59
2023/12/20 01:10:54;;;;;;;5.50;1.80;;;;;;;6.40;100.00;102069.44;107604;1261;67399;-57
2023/12/20 01:13:21;;;;;;;2.40;1.80;;;;;;;6.39;100.00;102066.93;104224;1260;73891;-58
2023/12/20 01:15:49;;;;;;;2.00;1.20;;;;;;;6.39;100.00;102065.33;106168;1258;59754;-58
2023/12/20 01:18:16;;;;;;;1.90;1.30;;;;;;;6.37;100.00;102065.88;104472;1259;60105;-58
2023/12/20 01:20:43;;;;;;;2.30;1.70;;;;;;;6.36;100.00;102068.72;104579;1257;73395;-57
2023/12/20 01:23:11;;;;;;;3.10;2.00;;;;;;;6.35;100.00;102060.16;104474;1257;65530;-58
2023/12/20 01:25:39;;;;;;;3.10;1.60;;;;;;;6.35;100.00;102058.01;104548;1259;73197;-59
2023/12/20 01:28:06;;;;;;;5.80;1.80;;;;;;;6.34;100.00;102053.54;104603;1256;59655;-56
2023/12/20 01:30:33;;;;;;;5.70;1.90;;;;;;;6.33;100.00;102046.40;105180;1256;59669;-57
2023/12/20 01:33:01;;;;;;;2.20;1.40;;;;;;;6.32;100.00;102040.68;108202;1256;71925;-57
2023/12/20 01:35:28;;;;;;;2.50;1.20;;;;;;;6.33;100.00;102039.80;104224;1256;69383;-57
2023/12/20 01:37:56;;;;;;;2.80;1.50;;;;;;;6.35;100.00;102030.91;104534;1256;73641;-57
2023/12/20 01:40:24;;;;;;;3.40;1.40;;;;;;;6.38;100.00;102033.95;104602;1256;60123;-56
2023/12/20 01:43:01;;;;;;;2.10;1.70;;;;;;;6.42;100.00;102032.37;104523;1262;61084;-58
2023/12/20 01:45:29;;;;;;;4.20;1.60;;;;;;;6.46;100.00;102043.80;104759;1257;71978;-56
2023/12/20 01:47:57;;;;;;;4.20;1.40;;;;;;;6.50;100.00;102027.94;104434;1256;65582;-57
2023/12/20 01:50:24;;;;;;;3.00;1.30;;;;;;;6.54;100.00;102027.27;104869;1257;71617;-58
2023/12/20 01:52:52;;;;;;;2.00;1.50;;;;;;;6.56;100.00;102024.20;104518;1256;59760;-56
2023/12/20 01:55:20;;;;;;;2.20;1.30;;;;;;;6.57;100.00;102025.29;104581;1257;60302;-57
2023/12/20 01:57:47;;;;;;;2.10;1.50;;;;;;;6.58;100.00;102024.58;104492;1260;73053;-58
2023/12/20 02:00:15;;;;;;;2.10;1.40;;;;;;;6.57;100.00;102023.33;104406;1256;68835;-59
2023/12/20 02:02:42;;;;;;;4.10;2.00;;;;;;;6.56;100.00;102012.61;104342;1259;72793;-59
2023/12/20 02:05:09;;;;;;;8.00;2.20;;;;;;;6.54;100.00;102009.59;104462;1262;59791;-57
2023/12/20 02:07:37;;;;;;;4.80;1.40;;;;;;;6.52;100.00;102008.52;104613;1256;60141;-59
2023/12/20 02:10:05;;;;;;;6.70;2.30;;;;;;;6.49;100.00;102003.14;104721;1260;71839;-58
2023/12/20 02:12:32;;;;;;;2.50;1.60;;;;;;;6.46;100.00;101997.42;104737;1257;67240;-58
2023/12/20 02:14:59;;;;;;;2.30;1.70;;;;;;;6.43;100.00;101984.05;104727;1257;72992;-53
2023/12/20 02:17:27;;;;;;;3.00;1.80;;;;;;;6.41;100.00;101977.95;104843;1257;59653;-60
2023/12/20 02:19:54;;;;;;;2.70;1.60;;;;;;;6.38;100.00;101969.75;104567;1257;59647;-53
2023/12/20 02:22:22;;;;;;;5.20;1.80;;;;;;;6.35;100.00;101958.15;105006;1260;72884;-56
2023/12/20 02:24:49;;;;;;;2.50;1.60;;;;;;;6.32;100.00;101948.67;104548;1261;66900;-56
2023/12/20 02:27:18;;;;;;;3.00;2.00;;;;;;;6.29;100.00;101941.02;104441;1256;72830;-55
2023/12/20 02:29:46;;;;;;;5.10;1.50;;;;;;;6.26;100.00;101933.32;104686;1256;59640;-53
2023/12/20 02:32:14;;;;;;;4.80;1.90;;;;;;;6.23;100.00;101926.34;104595;1256;60118;-56
2023/12/20 02:34:41;;;;;;;2.40;1.50;;;;;;;6.21;100.00;101915.84;104721;1257;73121;-55
2023/12/20 02:37:09;;;;;;;4.20;1.60;;;;;;;6.18;100.00;101912.44;104615;1260;67589;-56
2023/12/20 02:39:36;;;;;;;3.30;1.80;;;;;;;6.16;100.00;101906.54;106224;1256;71699;-55
2023/12/20 02:42:03;;;;;;;2.30;1.60;;;;;;;6.14;100.00;101900.10;104613;1257;59740;-57
2023/12/20 02:44:31;;;;;;;3.90;2.30;;;;;;;6.12;100.00;101897.25;104863;1262;59625;-54
2023/12/20 02:46:58;;;;;;;3.70;1.90;;;;;;;6.09;100.00;101892.98;104743;1260;71810;-58
2023/12/20 02:49:25;;;;;;;3.90;2.20;;;;;;;6.07;100.00;101889.38;104750;1262;66040;-54
2023/12/20 02:51:53;;;;;;;2.50;1.90;;;;;;;6.04;100.00;101879.40;104688;1262;72639;-56
2023/12/20 02:54:20;;;;;;;7.00;1.70;;;;;;;6.02;100.00;101866.92;104432;1257;59702;-56
2023/12/20 02:56:48;;;;;;;3.80;1.60;;;;;;;5.99;100.00;101853.35;104357;1256;59781;-54
2023/12/20 02:59:15;;;;;;;4.70;1.90;;;;;;;5.97;100.00;101857.27;104527;1256;71907;-58
2023/12/20 03:01:45;;;;;;;4.20;1.20;;;;;;;5.96;100.00;101848.71;104389;1262;68133;-55
2023/12/20 03:04:12;;;;;;;2.10;1.20;;;;;;;5.95;100.00;101846.05;104612;1259;72897;-54
2023/12/20 03:06:40;;;;;;;2.90;1.40;;;;;;;5.97;100.00;101839.97;105133;1256;64607;-55
2023/12/20 03:09:07;;;;;;;2.80;1.50;;;;;;;6.00;100.00;101834.48;104469;1259;62055;-57
2023/12/20 03:11:35;;;;;;;2.50;1.70;;;;;;;6.03;100.00;101835.55;104450;1257;73138;-55
2023/12/20 03:14:02;;;;;;;1.90;1.70;;;;;;;6.07;100.00;101828.26;104238;1259;66941;-56
2023/12/20 03:16:31;;;;;;;3.00;1.50;;;;;;;6.10;100.00;101829.16;104349;1262;72697;-56
2023/12/20 03:19:00;;;;;;;4.50;1.60;;;;;;;6.10;100.00;101837.89;108846;1257;59545;-57
2023/12/20 03:21:27;;;;;;;4.90;2.00;;;;;;;6.09;100.00;101834.86;108162;1257;59501;-54
2023/12/20 03:23:54;;;;;;;2.80;1.60;;;;;;;6.08;100.00;101845.19;104658;1262;73929;-59
2023/12/20 03:26:22;;;;;;;2.50;2.00;;;;;;;6.06;100.00;101848.73;104793;1256;68902;-59
2023/12/20 03:28:50;;;;;;;3.40;1.90;;;;;;;6.03;100.00;101847.14;104426;1262;75045;-55
2023/12/20 03:31:17;;;;;;;4.30;2.40;;;;;;;6.00;100.00;101845.88;104668;1262;61498;-55
2023/12/20 03:33:44;;;;;;;3.20;2.00;;;;;;;5.97;100.00;101836.05;105331;1259;60549;-54
2023/12/20 03:36:12;;;;;;;7.10;2.30;;;;;;;5.94;100.00;101832.85;104462;1257;74650;-57
2023/12/20 03:38:39;;;;;;;4.20;2.70;;;;;;;5.91;100.00;101824.98;104642;1260;66300;-59
2023/12/20 03:41:07;;;;;;;4.10;2.70;;;;;;;5.88;100.00;101819.80;104709;1262;73820;-53
2023/12/20 03:43:34;;;;;;;5.20;2.80;;;;;;;5.83;100.00;101812.11;105182;1256;60591;-57
2023/12/20 03:46:03;;;;;;;4.30;2.10;;;;;;;5.80;100.00;101801.75;104642;1257;60531;-54
2023/12/20 03:48:31;;;;;;;4.30;2.10;;;;;;;5.77;100.00;101798.36;107120;1262;71813;-57
2023/12/20 03:50:58;;;;;;;6.80;3.00;;;;;;;5.73;100.00;101789.96;104534;1257;65771;-52
2023/12/20 03:53:25;;;;;;;3.80;1.90;;;;;;;5.67;100.00;101779.08;104865;1257;71463;-55
2023/12/20 03:55:53;;;;;;;3.50;2.50;;;;;;;5.62;100.00;101766.59;104784;1260;60441;-57
2023/12/20 03:58:20;;;;;;;3.80;2.50;;;;;;;5.58;100.00;101748.77;104733;1256;60521;-54
2023/12/20 04:00:47;;;;;;;3.70;2.70;;;;;;;5.53;100.00;101738.60;104861;1261;74067;-57
2023/12/20 04:03:15;;;;;;;3.90;2.40;;;;;;;5.48;100.00;101729.32;107956;1257;65651;-53
2023/12/20 04:05:42;;;;;;;5.60;3.50;;;;;;;5.45;100.00;101719.51;104794;1262;73276;-54
2023/12/20 04:08:09;;;;;;;3.70;2.80;;;;;;;5.41;100.00;101710.95;104529;1257;60546;-54
2023/12/20 04:10:37;;;;;;;4.70;2.10;;;;;;;5.38;100.00;101701.14;104913;1257;60506;-54
2023/12/20 04:13:05;;;;;;;5.90;3.20;;;;;;;5.34;100.00;101692.42;104797;1262;72458;-58
2023/12/20 04:15:32;;;;;;;5.60;2.90;;;;;;;5.30;100.00;101682.07;104955;1262;67146;-56
2023/12/20 04:17:59;;;;;;;8.80;3.40;;;;;;;5.28;100.00;101673.88;104707;1257;72744;-55
2023/12/20 04:20:27;;;;;;;5.40;3.20;;;;;;;5.26;100.00;101666.05;105174;1261;62496;-57
2023/12/20 04:22:54;;;;;;;4.50;2.80;;;;;;;5.25;100.00;101657.14;104513;1260;60556;-58
2023/12/20 04:25:21;;;;;;;4.00;2.10;;;;;;;5.25;100.00;101650.73;104582;1257;73901;-58
2023/12/20 04:27:49;;;;;;;5.00;3.20;;;;;;;5.26;100.00;101649.66;104377;1262;69094;-56
2023/12/20 04:30:16;;;;;;;4.90;2.30;;;;;;;5.26;100.00;101640.77;108627;1257;73276;-56
2023/12/20 04:32:43;;;;;;;7.60;3.10;;;;;;;5.26;100.00;101641.85;105333;1256;60474;-55
2023/12/20 04:35:11;;;;;;;3.00;2.40;;;;;;;5.27;100.00;101649.84;104233;1260;60388;-57
2023/12/20 04:37:38;;;;;;;4.60;2.70;;;;;;;5.27;100.00;101653.40;104819;1258;72563;-58
2023/12/20 04:40:08;;;;;;;6.00;3.30;;;;;;;5.27;100.00;101651.97;104696;1262;66209;-57
2023/12/20 04:42:35;;;;;;;6.20;3.30;;;;;;;5.27;100.00;101654.64;106478;1257;72717;-58
2023/12/20 04:45:03;;;;;;;4.40;3.50;;;;;;;5.25;100.00;101646.81;104633;1262;60502;-53
2023/12/20 04:47:30;;;;;;;6.70;4.40;;;;;;;5.23;100.00;101641.64;104570;1257;60671;-57
2023/12/20 04:49:57;;;;;;;4.70;3.30;;;;;;;5.21;100.00;101634.14;104611;1262;74370;-57
2023/12/20 04:52:25;;;;;;;5.30;3.10;;;;;;;5.18;100.00;101636.46;104881;1256;66963;-54
2023/12/20 04:54:52;;;;;;;5.80;3.40;;;;;;;5.15;100.00;101634.85;107725;1257;71496;-57
2023/12/20 04:57:20;;;;;;;4.70;3.50;;;;;;;5.12;100.00;101622.55;104708;1256;60420;-60
2023/12/20 04:59:47;;;;;;;6.60;3.30;;;;;;;5.10;100.00;101617.75;104351;1260;60459;-58
2023/12/20 05:02:14;;;;;;;8.50;3.30;;;;;;;5.07;100.00;101612.58;104503;1262;74333;-55
2023/12/20 05:04:42;;;;;;;5.20;3.80;;;;;;;5.05;100.00;101608.29;104728;1257;67489;-55
2023/12/20 05:07:09;;;;;;;4.40;2.70;;;;;;;5.03;100.00;101596.00;104735;1260;71159;-51
2023/12/20 05:09:37;;;;;;;5.50;3.70;;;;;;;5.01;100.00;101591.55;104702;1256;60611;-57
2023/12/20 05:12:04;;;;;;;8.70;3.70;;;;;;;5.00;100.00;101585.52;104580;1263;60419;-55
2023/12/20 05:14:32;;;;;;;5.20;3.70;;;;;;;4.99;100.00;101579.45;104889;1257;76088;-56
2023/12/20 05:16:59;;;;;;;3.40;2.30;;;;;;;5.00;100.00;101570.20;104833;1260;66796;-54
2023/12/20 05:19:26;;;;;;;4.10;2.40;;;;;;;5.02;100.00;101572.69;104804;1262;73233;-55
2023/12/20 05:21:54;;;;;;;7.10;2.10;;;;;;;5.05;100.00;101579.28;104525;1262;60600;-52
2023/12/20 05:24:21;;;;;;;2.70;2.40;;;;;;;5.10;100.00;101578.60;104749;1257;60566;-56
2023/12/20 05:26:49;;;;;;;2.60;2.00;;;;;;;5.15;100.00;101583.23;104812;1261;73826;-57
2023/12/20 05:29:20;;;;;;;7.60;2.40;;;;;;;5.21;100.00;101594.82;104577;1262;65661;-57
2023/12/20 05:31:47;;;;;;;7.30;2.40;;;;;;;5.24;100.00;101590.02;104446;1257;72773;-56
2023/12/20 05:34:14;;;;;;;6.30;2.50;;;;;;;5.27;100.00;101600.00;104610;1262;60497;-55
2023/12/20 05:36:42;;;;;;;4.10;2.30;;;;;;;5.29;100.00;101600.17;104410;1259;60458;-57
2023/12/20 05:39:09;;;;;;;5.20;3.40;;;;;;;5.29;100.00;101596.80;104450;1257;72673;-57
2023/12/20 05:41:36;;;;;;;7.80;3.60;;;;;;;5.29;100.00;101598.57;104359;1256;65903;-59
2023/12/20 05:44:03;;;;;;;4.40;2.10;;;;;;;5.28;100.00;101596.25;108764;1256;72688;-57
2023/12/20 05:46:31;;;;;;;6.30;2.10;;;;;;;5.26;100.00;101597.70;104844;1261;60354;-59
2023/12/20 05:48:58;;;;;;;4.80;3.10;;;;;;;5.23;100.00;101590.38;104666;1256;60353;-57
2023/12/20 05:51:25;;;;;;;3.50;2.10;;;;;;;5.22;100.00;101586.45;105092;1261;74284;-56
2023/12/20 05:53:53;;;;;;;7.10;3.50;;;;;;;5.19;100.00;101584.14;104589;1257;66723;-56
2023/12/20 05:56:20;;;;;;;4.50;1.90;;;;;;;5.17;100.00;101572.39;104488;1263;71443;-55
2023/12/20 05:58:47;;;;;;;3.50;1.70;;;;;;;5.15;100.00;101576.48;104691;1262;60514;-56
2023/12/20 06:01:16;;;;;;;6.50;2.70;;;;;;;5.12;100.00;101571.46;104792;1261;60533;-56
2023/12/20 06:03:45;;;;;;;4.00;1.90;;;;;;;5.09;100.00;101575.40;104815;1256;72993;-54
2023/12/20 06:06:13;;;;;;;6.00;2.80;;;;;;;5.07;100.00;101571.11;104380;1260;65829;-55
2023/12/20 06:08:43;;;;;;;6.60;1.90;;;;;;;5.06;100.00;101561.14;104388;1260;71455;-57
2023/12/20 06:11:11;;;;;;;5.20;2.20;;;;;;;5.05;100.00;101550.11;108662;1259;58618;-57
2023/12/20 06:13:38;;;;;;;3.20;1.90;;;;;;;5.04;100.00;101543.52;104877;1256;60536;-58
2023/12/20 06:16:07;;;;;;;6.80;2.30;;;;;;;5.04;100.00;101542.09;104659;1262;73994;-56
2023/12/20 06:18:36;;;;;;;4.10;2.10;;;;;;;5.04;100.00;101540.84;104553;1262;67629;-57
2023/12/20 06:21:04;;;;;;;3.40;1.90;;;;;;;5.05;100.00;101542.09;104890;1259;72688;-56
2023/12/20 06:23:31;;;;;;;3.80;2.20;;;;;;;5.06;100.00;101531.79;104367;1264;60599;-55
2023/12/20 06:25:59;;;;;;;4.80;2.50;;;;;;;5.08;100.00;101532.33;104361;1262;60484;-57
2023/12/20 06:28:26;;;;;;;4.00;2.20;;;;;;;5.09;100.00;101530.02;104565;1257;73948;-57
2023/12/20 06:30:54;;;;;;;8.70;1.80;;;;;;;5.11;100.00;101523.08;104968;1262;66107;-57
2023/12/20 06:33:22;;;;;;;4.00;1.90;;;;;;;5.12;100.00;101528.77;108730;1256;72423;-57
2023/12/20 06:35:50;;;;;;;2.80;1.70;;;;;;;5.14;100.00;101532.68;108019;1259;60448;-60
2023/12/20 06:38:18;;;;;;;3.20;2.10;;;;;;;5.17;100.00;101535.73;104773;1262;60581;-55
2023/12/20 06:40:45;;;;;;;4.10;2.00;;;;;;;5.22;100.00;101541.24;104681;1257;73267;-53
2023/12/20 06:43:13;;;;;;;2.60;1.60;;;;;;;5.29;100.00;101550.16;104763;1262;69343;-56
2023/12/20 06:45:58;;;;;;;;;;;;;;;5.38;100.00;101578.13;104745;1261;73203;-56
2023/12/20 06:48:25;;;;;;;3.40;2.00;;;;;;;5.47;100.00;101579.92;108598;1256;59192;-57
2023/12/20 06:50:53;;;;;;;6.50;2.10;;;;;;;5.57;100.00;101591.16;108132;1256;60066;-54
2023/12/20 06:53:20;;;;;;;2.70;1.50;;;;;;;5.68;100.00;101604.52;104867;1262;74082;-54
2023/12/20 06:55:47;;;;;;;4.60;1.60;;;;;;;5.76;100.00;101618.25;104549;1259;67996;-53
2023/12/20 06:58:15;;;;;;;1.70;1.50;;;;;;;5.84;100.00;101625.73;104672;1256;71298;-57
2023/12/20 07:00:42;;;;;;;3.60;2.00;;;;;;;5.91;100.00;101637.36;104710;1263;60606;-57
2023/12/20 07:03:09;;;;;;;2.10;1.40;;;;;;;5.97;100.00;101642.54;108670;1258;58521;-54
2023/12/20 07:05:36;;;;;;;3.60;2.20;;;;;;;6.02;100.00;101658.04;108633;1257;72608;-55
2023/12/20 07:08:04;;;;;;;5.80;2.80;;;;;;;6.07;100.00;101663.20;108800;1256;64729;-57
2023/12/20 07:10:32;;;;;;;4.80;2.40;;;;;;;6.11;100.00;101676.59;108473;1258;73133;-58
2023/12/20 07:12:59;;;;;;;9.30;2.60;;;;;;;6.13;100.00;101677.28;104806;1260;60447;-53
2023/12/20 07:15:29;;;;;;;5.00;2.60;;;;;;;6.16;100.00;101676.75;104645;1257;61266;-56
2023/12/20 07:17:56;;;;;;;3.60;2.10;;;;;;;6.20;100.00;101690.13;105000;1261;73980;-55
2023/12/20 07:20:24;;;;;;;5.40;3.60;;;;;;;6.24;100.00;101687.27;104700;1262;66785;-55
2023/12/20 07:22:51;;;;;;;4.50;2.30;;;;;;;6.29;100.00;101694.41;104576;1263;72810;-54
2023/12/20 07:25:20;;;;;;;4.00;2.70;;;;;;;6.33;100.00;101694.23;104697;1259;61145;-57
2023/12/20 07:27:47;;;;;;;7.40;3.60;;;;;;;6.36;100.00;101700.12;104812;1263;61017;-55
2023/12/20 07:30:15;;;;;;;5.90;3.20;;;;;;;6.39;100.00;101701.70;104789;1260;73949;-59
2023/12/20 07:32:42;;;;;;;5.00;2.80;;;;;;;6.41;100.00;101705.98;104562;1264;65782;-55
2023/12/20 07:35:10;;;;;;;4.70;3.10;;;;;;;6.43;100.00;101703.33;104694;1263;70730;-56
2023/12/20 07:37:37;;;;;;;3.20;2.40;;;;;;;6.46;100.00;101703.67;106330;1262;60442;-54
2023/12/20 07:40:06;;;;;;;4.30;2.50;;;;;;;6.52;100.00;101706.70;104511;1262;60423;-54
2023/12/20 07:42:33;;;;;;;3.30;2.70;;;;;;;6.57;100.00;101718.64;105510;1262;72649;-54
2023/12/20 07:45:00;;;;;;;2.70;1.80;;;;;;;6.61;100.00;101727.39;104649;1262;65790;-55
2023/12/20 07:47:28;;;;;;;5.60;2.10;;;;;;;6.66;100.00;101732.02;104823;1260;71314;-55
2023/12/20 07:49:55;;;;;;;3.90;2.80;;;;;;;6.73;100.00;101737.91;104607;1263;60856;-53
2023/12/20 07:52:23;;;;;;;6.20;3.50;;;;;;;6.78;100.00;101749.85;104606;1263;60583;-55
2023/12/20 07:54:50;;;;;;;5.80;3.10;;;;;;;6.83;100.00;101753.23;104517;1258;74065;-56
2023/12/20 07:57:18;;;;;;;3.70;2.90;;;;;;;6.89;100.00;101758.94;104472;1263;67266;-55
2023/12/20 07:59:45;;;;;;;8.10;4.20;;;;;;;6.94;100.00;101761.96;104585;1263;71461;-53
2023/12/20 08:02:12;;;;;;;4.20;2.90;;;;;;;6.96;100.00;101759.66;105359;1262;60585;-57
2023/12/20 08:04:40;;;;;;;3.30;2.90;;;;;;;6.98;100.00;101764.63;104576;1257;60470;-58
2023/12/20 08:07:08;;;;;;;4.70;3.50;;;;;;;7.01;100.00;101774.63;105230;1262;72186;-58
2023/12/20 08:09:36;;;;;;;4.70;3.30;;;;;;;7.05;100.00;101780.52;104623;1262;66822;-53
2023/12/20 08:12:04;;;;;;;6.10;3.00;;;;;;;7.09;100.00;101785.33;104668;1262;73122;-55
2023/12/20 08:14:31;;;;;;;6.50;4.00;;;;;;;7.12;100.00;101786.94;104631;1263;60578;-56
2023/12/20 08:16:59;;;;;;;5.00;2.40;;;;;;;7.15;100.00;101795.14;104578;1257;60554;-55
2023/12/20 08:19:26;;;;;;;4.50;2.80;;;;;;;7.18;100.00;101802.09;104712;1262;72671;-55
2023/12/20 08:21:53;;;;;;;3.10;1.90;;;;;;;7.20;100.00;101809.95;105226;1262;67473;-54
2023/12/20 08:24:21;;;;;;;4.40;2.50;;;;;;;7.24;100.00;101817.96;104726;1262;71832;-55
2023/12/20 08:26:48;;;;;;;4.10;1.90;;;;;;;7.29;100.00;101827.08;104646;1261;60422;-55
2023/12/20 08:29:15;;;;;;;4.40;2.20;;;;;;;7.35;100.00;101830.45;104496;1260;60579;-55
2023/12/20 08:31:43;;;;;;;2.70;2.20;;;;;;;7.41;100.00;101830.79;104789;1262;71722;-57
2023/12/20 08:34:12;;;;;;;3.90;2.70;;;;;;;7.46;100.00;101831.86;104916;1260;67954;-55
2023/12/20 08:36:39;;;;;;;4.40;2.00;;;;;;;7.51;100.00;101843.27;105220;1257;71441;-58
2023/12/20 08:39:08;;;;;;;4.40;2.80;;;;;;;7.57;100.00;101840.59;104701;1262;60643;-55
2023/12/20 08:41:35;;;;;;;4.30;2.70;;;;;;;7.60;100.00;101850.03;104732;1263;62004;-57
2023/12/20 08:44:03;;;;;;;3.70;2.00;;;;;;;7.63;100.00;101864.87;104774;1263;74372;-59
2023/12/20 08:46:30;;;;;;;3.50;2.50;;;;;;;7.66;100.00;101871.47;104485;1263;67320;-55
2023/12/20 08:48:58;;;;;;;6.10;2.60;;;;;;;7.70;100.00;101874.49;105083;1262;72692;-57
2023/12/20 08:51:25;;;;;;;4.60;2.20;;;;;;;7.74;100.00;101875.38;104631;1260;60446;-52
2023/12/20 08:53:53;;;;;;;2.60;1.70;;;;;;;7.78;100.00;101879.64;104531;1258;60567;-54
2023/12/20 08:56:20;;;;;;;4.50;2.30;;;;;;;7.80;100.00;101893.59;104591;1263;74305;-55
2023/12/20 08:58:48;;;;;;;2.30;1.70;;;;;;;7.83;100.00;101894.11;104819;1258;65513;-59
2023/12/20 09:01:15;;;;;;;3.00;2.10;;;;;;;7.87;100.00;101900.71;104630;1264;71510;-54
2023/12/20 09:03:43;;;;;;;4.40;2.20;;;;;;;7.91;100.00;101908.39;104902;1262;60739;-57
2023/12/20 09:06:11;;;;;;;2.70;1.60;;;;;;;7.95;100.00;101906.23;105145;1257;60832;-54
2023/12/20 09:08:38;;;;;;;3.50;2.60;;;;;;;8.00;100.00;101901.38;105142;1259;72957;-57
2023/12/20 09:11:06;;;;;;;4.40;2.90;;;;;;;8.05;100.00;101907.45;104698;1258;67783;-57
2023/12/20 09:13:34;;;;;;;4.30;3.10;;;;;;;8.10;100.00;101922.62;104582;1263;71348;-51
2023/12/20 09:16:02;;;;;;;4.20;2.40;;;;;;;8.15;100.00;101922.43;104951;1263;60483;-57
2023/12/20 09:18:30;;;;;;;6.40;2.40;;;;;;;8.19;100.00;101920.98;104802;1263;60563;-55
2023/12/20 09:20:57;;;;;;;4.50;3.50;;;;;;;8.24;100.00;101922.92;104678;1261;74355;-55
2023/12/20 09:23:25;;;;;;;5.40;3.20;;;;;;;8.28;100.00;101927.38;108537;1257;67715;-55
2023/12/20 09:25:52;;;;;;;5.60;2.40;;;;;;;8.32;100.00;101928.65;107295;1258;73428;-54
2023/12/20 09:28:23;;;;;;;7.50;2.60;;;;;;;8.38;100.00;101940.25;104596;1263;60537;-56
2023/12/20 09:30:51;;;;;;;3.80;1.90;;;;;;;8.42;100.00;101938.27;104588;1263;60592;-55
2023/12/20 09:33:18;;;;;;;2.80;1.40;;;;;;;8.45;100.00;101931.98;104844;1257;73870;-55
2023/12/20 09:35:47;;;;;;;1.40;1.00;;;;;;;8.49;100.00;101929.27;104496;1258;66248;-55
2023/12/20 09:38:17;;;;;;;2.90;1.60;;;;;;;8.52;100.00;101938.55;108571;1261;72728;-54
2023/12/20 09:40:44;;;;;;;4.20;1.40;;;;;;;8.55;100.00;101945.17;107863;1258;59413;-53
2023/12/20 09:43:14;;;;;;;1.50;1.10;;;;;;;8.59;100.00;101947.66;104491;1259;60348;-54
2023/12/20 09:45:44;;;;;;;2.50;1.50;;;;;;;8.65;100.00;101964.99;105147;1260;73851;-54
2023/12/20 09:48:11;;;;;;;1.60;1.10;;;;;;;8.68;100.00;101966.58;104543;1261;65683;-54
2023/12/20 09:50:39;;;;;;;2.20;1.10;;;;;;;8.71;100.00;101972.29;108583;1257;71740;-56
2023/12/20 09:53:09;;;;;;;1.60;1.10;;;;;;;8.77;100.00;101971.01;108560;1257;58484;-55
2023/12/20 09:55:36;;;;;;;1.90;1.40;;;;;;;8.82;100.00;101983.16;108673;1258;58837;-54
2023/12/20 09:58:04;;;;;;;2.20;1.40;;;;;;;8.87;100.00;101989.20;108750;1257;73782;-55
2023/12/20 10:00:31;;;;;;;3.40;1.50;;;;;;;8.93;100.00;101997.95;108741;1257;65876;-55
2023/12/20 10:03:00;;;;;;;1.60;1.20;;;;;;;8.97;100.00;102004.02;108749;1256;71458;-57
2023/12/20 10:05:28;;;;;;;1.50;0.80;;;;;;;8.97;100.00;102007.95;108655;1261;58633;-55
2023/12/20 10:07:57;;;;;;;1.50;1.00;;;;;;;8.96;100.00;102014.77;108684;1257;60522;-55
2023/12/20 10:10:24;;;;;;;2.30;1.20;;;;;;;8.99;100.00;102011.17;108580;1261;72523;-56
2023/12/20 10:13:12;;;;;;;1.80;1.10;;;;;;;9.01;100.00;102035.16;106203;1257;64867;-56
2023/12/20 10:15:40;;;;;;;3.10;1.00;;;;;;;9.01;100.00;102023.34;108622;1258;75237;-55
2023/12/20 10:18:10;;;;;;;4.10;1.00;;;;;;;9.02;100.00;102022.78;106300;1257;62075;-51
2023/12/20 10:20:40;;;;;;;1.30;1.10;;;;;;;9.05;100.00;102022.95;108379;1257;59365;-54
2023/12/20 10:23:07;;;;;;;2.80;1.10;;;;;;;9.07;100.00;102018.82;104513;1259;73902;-55
2023/12/20 10:25:34;;;;;;;1.40;1.00;;;;;;;9.09;100.00;102018.27;104439;1261;66332;-58
2023/12/20 10:28:13;;;;;;;1.10;0.90;;;;;;;9.11;100.00;102020.21;107581;1258;71369;-55
2023/12/20 10:30:41;;;;;;;1.10;0.90;;;;;;;9.13;100.00;102039.38;104823;1263;60557;-53
2023/12/20 10:33:09;;;;;;;2.40;1.20;;;;;;;9.15;100.00;102031.84;104616;1257;60424;-54
2023/12/20 10:35:38;;;;;;;2.00;1.00;;;;;;;9.18;100.00;102033.09;105164;1258;73603;-53
2023/12/20 10:38:10;;;;;;;1.90;0.90;;;;;;;9.20;100.00;102032.87;105478;1258;67014;-58
2023/12/20 10:40:37;;;;;;;1.10;0.80;;;;;;;9.22;100.00;102032.33;104569;1263;74506;-51
2023/12/20 10:43:05;;;;;;;1.20;0.90;;;;;;;9.23;100.00;102030.54;104790;1263;61049;-55
2023/12/20 10:45:33;;;;;;;1.30;0.90;;;;;;;9.25;100.00;102024.27;104589;1262;60473;-52
2023/12/20 10:48:01;;;;;;;1.20;0.90;;;;;;;9.26;100.00;102017.63;104619;1264;72632;-56
2023/12/20 10:50:30;;;;;;;2.40;1.30;;;;;;;9.27;100.00;102026.92;105295;1260;67930;-57
2023/12/20 10:52:58;;;;;;;1.70;0.90;;;;;;;9.28;100.00;102025.29;104611;1257;70507;-57
2023/12/20 10:55:26;;;;;;;1.00;0.80;;;;;;;9.27;100.00;102020.30;105169;1257;60820;-56
2023/12/20 10:58:00;;;;;;;1.60;1.00;;;;;;;9.25;100.00;102004.20;104483;1263;60499;-56
2023/12/20 11:00:30;;;;;;;2.40;1.30;;;;;;;9.21;100.00;102000.08;104590;1262;71711;-55
2023/12/20 11:03:05;;;;;;;1.00;0.80;;;;;;;9.21;100.00;101986.65;104622;1270;67038;-56
2023/12/20 11:05:54;;;;;;;0.90;0.70;;;;;;;9.20;100.00;101988.63;104696;1263;71112;-51
2023/12/20 11:08:28;;;;;;;1.00;0.80;;;;;;;9.19;100.00;102004.94;105275;1258;62600;-53
2023/12/20 11:11:04;;;;;;;1.50;1.00;;;;;;;9.19;100.00;101977.90;104590;1258;60613;-52
2023/12/20 11:13:34;;;;;;;2.50;1.00;;;;;;;9.18;100.00;101974.86;104726;1257;71731;-55
2023/12/20 11:16:02;;;;;;;1.30;0.90;;;;;;;9.20;100.00;101954.05;104501;1258;69161;-58
2023/12/20 11:18:30;;;;;;;1.50;1.00;;;;;;;9.22;100.00;101945.98;104651;1261;73213;-53
2023/12/20 11:21:05;;;;;;;1.20;0.90;;;;;;;9.23;100.00;101941.33;104501;1260;60387;-58